createdAt,value
2023-04-28T00:01:41.985Z,6.90
2023-04-28T00:04:09.323Z,6.10
2023-04-28T00:06:37.136Z,6.45
2023-04-28T00:09:04.081Z,6.53
2023-04-28T00:11:30.881Z,7.47
2023-04-28T00:13:57.634Z,7.40
2023-04-28T00:16:24.535Z,6.22
2023-04-28T00:18:52.171Z,6.00
2023-04-28T00:21:18.906Z,9.90
2023-04-28T00:23:45.938Z,5.80
2023-04-28T00:26:12.763Z,6.05
2023-04-28T00:28:39.591Z,6.15
2023-04-28T00:31:14.049Z,6.20
2023-04-28T00:33:41.195Z,4.60
2023-04-28T00:36:08.580Z,5.75
2023-04-28T00:38:35.807Z,3.97
2023-04-28T00:41:03.034Z,5.53
2023-04-28T00:43:30.189Z,6.55
2023-04-28T00:45:57.065Z,7.57
2023-04-28T00:48:24.396Z,8.15
2023-04-28T00:50:51.997Z,5.97
2023-04-28T00:53:18.944Z,5.07
2023-04-28T00:55:47.047Z,8.48
2023-04-28T00:58:13.926Z,8.25
2023-04-28T01:00:40.670Z,5.60
2023-04-28T01:03:08.122Z,8.38
2023-04-28T01:05:36.514Z,9.10
2023-04-28T01:08:03.443Z,8.10
2023-04-28T01:10:30.736Z,5.90
2023-04-28T01:12:57.534Z,5.28
2023-04-28T01:15:24.441Z,7.85
2023-04-28T01:17:51.887Z,7.32
2023-04-28T01:20:18.738Z,15.77
2023-04-28T01:22:45.548Z,9.27
2023-04-28T01:25:12.350Z,9.95
2023-04-28T01:27:39.146Z,10.52
2023-04-28T01:30:06.903Z,10.13
2023-04-28T01:32:33.764Z,9.00
2023-04-28T01:35:00.620Z,7.55
2023-04-28T01:37:27.416Z,6.45
2023-04-28T01:39:54.228Z,7.97
2023-04-28T01:42:21.037Z,6.32
2023-04-28T01:44:47.973Z,7.45
2023-04-28T01:47:14.747Z,12.35
2023-04-28T01:49:41.810Z,5.53
2023-04-28T01:52:08.734Z,6.25
2023-04-28T01:54:35.560Z,7.00
2023-04-28T01:57:03.256Z,9.00
2023-04-28T01:59:30.381Z,7.57
2023-04-28T02:01:57.353Z,9.25
2023-04-28T02:04:24.246Z,8.45
2023-04-28T02:06:50.960Z,7.72
2023-04-28T02:09:17.743Z,10.63
2023-04-28T02:11:44.419Z,7.65
2023-04-28T02:14:11.300Z,6.82
2023-04-28T02:16:38.066Z,8.88
2023-04-28T02:19:04.793Z,7.38
2023-04-28T02:21:31.990Z,5.97
2023-04-28T02:23:58.802Z,8.35
2023-04-28T02:26:25.930Z,7.70
2023-04-28T02:28:53.080Z,7.55
2023-04-28T02:31:20.104Z,9.75
2023-04-28T02:33:47.115Z,7.32
2023-04-28T02:36:13.799Z,8.60
2023-04-28T02:38:41.774Z,6.72
2023-04-28T02:41:09.345Z,5.93
2023-04-28T02:43:37.334Z,8.30
2023-04-28T02:46:05.020Z,6.28
2023-04-28T02:48:33.226Z,5.97
2023-04-28T02:51:00.075Z,10.75
2023-04-28T02:53:26.808Z,6.25
2023-04-28T02:55:54.148Z,8.52
2023-04-28T02:58:21.043Z,6.32
2023-04-28T03:00:48.364Z,7.07
2023-04-28T03:03:15.542Z,7.32
2023-04-28T03:05:42.593Z,8.02
2023-04-28T03:08:09.391Z,13.13
2023-04-28T03:10:36.318Z,8.50
2023-04-28T03:13:03.164Z,6.85
2023-04-28T03:15:29.920Z,11.18
2023-04-28T03:18:03.889Z,7.78
2023-04-28T03:20:30.709Z,6.68
2023-04-28T03:22:57.642Z,6.53
2023-04-28T03:25:24.384Z,8.52
2023-04-28T03:27:51.166Z,7.45
2023-04-28T03:30:17.918Z,7.80
2023-04-28T03:32:44.764Z,9.80
2023-04-28T03:35:11.562Z,8.57
2023-04-28T03:37:38.725Z,11.68
2023-04-28T03:40:06.334Z,12.18
2023-04-28T03:42:32.981Z,6.40
2023-04-28T03:44:59.833Z,8.68
2023-04-28T03:47:26.908Z,5.85
2023-04-28T03:49:53.787Z,8.60
2023-04-28T03:52:20.681Z,14.05
2023-04-28T03:54:47.426Z,9.02
2023-04-28T03:57:14.206Z,7.53
2023-04-28T03:59:41.075Z,14.27
2023-04-28T04:02:08.290Z,11.25
2023-04-28T04:04:35.336Z,15.18
2023-04-28T04:07:02.801Z,8.88
2023-04-28T04:09:29.647Z,9.30
2023-04-28T04:11:56.609Z,9.30
2023-04-28T04:14:23.436Z,7.68
2023-04-28T04:16:50.295Z,9.10
2023-04-28T04:19:17.136Z,13.90
2023-04-28T04:21:43.938Z,12.00
2023-04-28T04:24:10.745Z,10.30
2023-04-28T04:26:37.478Z,10.38
2023-04-28T04:29:04.223Z,9.18
2023-04-28T04:31:31.069Z,8.90
2023-04-28T04:33:57.897Z,8.35
2023-04-28T04:36:27.616Z,10.80
2023-04-28T04:38:54.820Z,10.10
2023-04-28T04:41:22.113Z,15.10
2023-04-28T04:43:49.007Z,14.15
2023-04-28T04:46:15.978Z,13.60
2023-04-28T04:48:43.240Z,14.45
2023-04-28T04:51:10.178Z,8.80
2023-04-28T04:53:37.248Z,10.57
2023-04-28T04:56:04.171Z,12.48
2023-04-28T04:58:31.746Z,12.82
2023-04-28T05:00:59.667Z,8.77
2023-04-28T05:03:26.843Z,10.18
2023-04-28T05:05:53.779Z,13.45
2023-04-28T05:08:20.665Z,11.82
2023-04-28T05:10:47.577Z,8.93
2023-04-28T05:13:14.421Z,9.68
2023-04-28T05:15:41.143Z,10.85
2023-04-28T05:18:11.118Z,12.10
2023-04-28T05:20:38.153Z,11.35
2023-04-28T05:23:05.073Z,9.55
2023-04-28T05:25:31.805Z,12.82
2023-04-28T05:27:59.318Z,12.98
2023-04-28T05:30:26.426Z,12.40
2023-04-28T05:32:54.056Z,14.10
2023-04-28T05:35:20.812Z,16.33
2023-04-28T05:37:47.498Z,11.93
2023-04-28T05:40:14.834Z,10.90
2023-04-28T05:42:41.648Z,17.95
2023-04-28T05:45:09.090Z,15.70
2023-04-28T05:47:36.139Z,16.08
2023-04-28T05:50:03.413Z,15.88
2023-04-28T05:52:30.427Z,18.90
2023-04-28T05:54:57.237Z,15.07
2023-04-28T05:57:24.003Z,17.25
2023-04-28T05:59:50.947Z,15.25
2023-04-28T06:02:18.303Z,17.02
2023-04-28T06:04:46.015Z,12.30
2023-04-28T06:07:13.042Z,14.50
2023-04-28T06:09:40.203Z,14.63
2023-04-28T06:12:07.544Z,13.52
2023-04-28T06:14:36.248Z,14.25
2023-04-28T06:17:03.619Z,12.27
2023-04-28T06:19:30.652Z,16.38
2023-04-28T06:21:57.617Z,15.82
2023-04-28T06:24:24.367Z,17.23
2023-04-28T06:26:51.265Z,13.98
2023-04-28T06:29:18.111Z,14.27
2023-04-28T06:31:44.926Z,12.02
2023-04-28T06:34:11.836Z,16.70
2023-04-28T06:36:38.676Z,15.73
2023-04-28T06:39:05.542Z,13.98
2023-04-28T06:41:32.279Z,14.88
2023-04-28T06:43:59.078Z,12.10
2023-04-28T06:46:25.892Z,14.38
2023-04-28T06:48:52.620Z,15.05
2023-04-28T06:51:19.448Z,20.58
2023-04-28T06:53:46.273Z,12.45
2023-04-28T06:56:13.785Z,17.25
2023-04-28T06:58:40.707Z,25.65
2023-04-28T07:01:07.584Z,19.92
2023-04-28T07:03:34.486Z,15.65
2023-04-28T07:06:01.501Z,18.17
2023-04-28T07:08:30.600Z,25.98
2023-04-28T07:10:57.546Z,15.35
2023-04-28T07:13:24.405Z,17.42
2023-04-28T07:15:51.185Z,17.38
2023-04-28T07:18:17.997Z,24.30
2023-04-28T07:20:44.808Z,16.98
2023-04-28T07:23:11.970Z,18.10
2023-04-28T07:25:40.133Z,14.43
2023-04-28T07:28:07.931Z,16.25
2023-04-28T07:30:35.323Z,13.40
2023-04-28T07:33:02.790Z,10.20
2023-04-28T07:35:29.736Z,18.60
2023-04-28T07:37:57.938Z,11.23
2023-04-28T07:40:24.911Z,14.73
2023-04-28T07:42:51.992Z,15.55
2023-04-28T07:45:18.969Z,13.65
2023-04-28T07:47:45.901Z,14.95
2023-04-28T07:50:13.083Z,12.85
2023-04-28T07:52:39.846Z,15.73
2023-04-28T07:55:07.126Z,15.05
2023-04-28T07:57:34.014Z,17.27
2023-04-28T08:00:00.830Z,15.23
2023-04-28T08:02:27.807Z,13.50
2023-04-28T08:04:55.173Z,16.20
2023-04-28T08:07:25.370Z,13.45
2023-04-28T08:09:53.711Z,15.70
2023-04-28T08:12:20.911Z,19.63
2023-04-28T08:14:48.622Z,14.60
2023-04-28T08:17:15.485Z,15.13
2023-04-28T08:19:42.257Z,12.35
2023-04-28T08:22:09.118Z,12.98
2023-04-28T08:24:36.063Z,15.98
2023-04-28T08:27:03.890Z,16.45
2023-04-28T08:29:31.893Z,13.75
2023-04-28T08:31:59.070Z,14.88
2023-04-28T08:34:25.979Z,15.15
2023-04-28T08:36:53.474Z,14.32
2023-04-28T08:39:23.704Z,14.57
2023-04-28T08:41:50.903Z,13.88
2023-04-28T08:44:18.719Z,13.80
2023-04-28T08:46:49.144Z,12.50
2023-04-28T08:49:17.546Z,12.90
2023-04-28T08:51:54.621Z,11.68
2023-04-28T08:54:26.962Z,13.73
2023-04-28T08:56:56.954Z,13.20
2023-04-28T08:59:24.186Z,12.68
2023-04-28T09:01:51.418Z,15.18
2023-04-28T09:04:19.320Z,13.75
2023-04-28T09:06:46.997Z,13.65
2023-04-28T09:09:27.397Z,15.38
2023-04-28T09:11:56.399Z,13.07
2023-04-28T09:14:23.859Z,14.35
2023-04-28T09:16:51.776Z,14.68
2023-04-28T09:19:19.146Z,12.55
2023-04-28T09:21:56.994Z,12.95
2023-04-28T09:24:32.633Z,14.82
2023-04-28T09:27:04.558Z,13.93
2023-04-28T09:29:32.476Z,13.43
2023-04-28T09:32:21.134Z,13.75
2023-04-28T09:34:52.638Z,14.77
2023-04-28T09:37:24.987Z,14.82
2023-04-28T09:39:54.592Z,15.95
2023-04-28T09:42:44.996Z,13.75
2023-04-28T09:45:14.177Z,14.60
2023-04-28T09:47:43.135Z,15.63
2023-04-28T09:50:15.277Z,15.13
2023-04-28T09:52:44.995Z,13.45
2023-04-28T09:55:20.139Z,14.45
2023-04-28T09:58:10.089Z,12.60
2023-04-28T10:00:46.902Z,13.18
2023-04-28T10:03:33.001Z,13.63
2023-04-28T10:06:13.619Z,15.60
2023-04-28T10:08:43.921Z,14.25
2023-04-28T10:11:14.101Z,13.82
2023-04-28T10:13:44.179Z,12.48
2023-04-28T10:16:12.837Z,14.90
2023-04-28T10:18:57.837Z,15.10
2023-04-28T10:21:37.653Z,15.50
2023-04-28T10:24:06.411Z,17.17
2023-04-28T10:27:04.939Z,15.32
2023-04-28T10:29:33.653Z,14.60
2023-04-28T10:32:24.030Z,16.92
2023-04-28T10:34:51.681Z,14.85
2023-04-28T10:37:19.924Z,13.90
2023-04-28T10:40:25.572Z,12.43
2023-04-28T10:42:53.382Z,13.65
2023-04-28T10:45:59.654Z,13.82
2023-04-28T10:48:26.595Z,12.90
2023-04-28T10:51:15.518Z,12.90
2023-04-28T10:53:45.970Z,13.27
2023-04-28T10:56:18.677Z,14.77
2023-04-28T10:58:46.824Z,13.30
2023-04-28T11:01:24.211Z,13.80
2023-04-28T11:04:04.699Z,15.82
2023-04-28T11:06:42.187Z,11.52
2023-04-28T11:09:15.621Z,11.35
2023-04-28T11:11:56.134Z,11.48
2023-04-28T11:14:23.104Z,9.90
2023-04-28T11:17:01.441Z,11.52
2023-04-28T11:19:33.387Z,9.90
2023-04-28T11:22:04.206Z,9.07
2023-04-28T11:24:32.257Z,9.15
2023-04-28T11:27:00.046Z,9.23
2023-04-28T11:29:38.184Z,9.57
2023-04-28T11:32:06.850Z,10.63
2023-04-28T11:34:34.942Z,8.60
2023-04-28T11:37:02.048Z,8.52
2023-04-28T11:39:31.509Z,7.45
2023-04-28T11:42:00.636Z,8.95
2023-04-28T11:44:30.810Z,8.50
2023-04-28T11:47:04.500Z,8.40
2023-04-28T11:49:41.492Z,6.80
2023-04-28T11:52:09.200Z,7.53
2023-04-28T11:54:37.557Z,8.55
2023-04-28T11:57:05.911Z,8.32
2023-04-28T11:59:35.218Z,10.60
2023-04-28T12:02:04.197Z,9.82
2023-04-28T12:04:42.621Z,11.00
2023-04-28T12:07:19.928Z,7.95
2023-04-28T12:09:50.101Z,6.80
2023-04-28T12:12:45.195Z,7.13
2023-04-28T12:15:24.797Z,5.38
2023-04-28T12:17:52.341Z,5.70
2023-04-28T12:20:35.949Z,7.20
2023-04-28T12:23:03.077Z,6.00
2023-04-28T12:25:30.244Z,6.40
2023-04-28T12:28:08.554Z,7.28
2023-04-28T12:30:42.155Z,5.55
2023-04-28T12:41:03.815Z,3.78
2023-04-28T12:43:30.554Z,3.00
2023-04-28T12:45:57.455Z,3.25
2023-04-28T12:48:25.384Z,3.60
2023-04-28T12:50:52.457Z,3.30
2023-04-28T12:53:19.444Z,3.70
2023-04-28T13:29:11.277Z,7.05
2023-04-28T13:31:38.592Z,7.50
2023-04-28T13:34:06.262Z,8.68
2023-04-28T13:36:33.272Z,9.45
2023-04-28T13:39:02.349Z,8.25
2023-04-28T13:41:30.138Z,8.25
2023-04-28T13:43:57.289Z,9.07
2023-04-28T13:46:24.430Z,9.93
2023-04-28T13:48:54.129Z,11.95
2023-04-28T13:51:21.223Z,10.02
2023-04-28T13:53:48.991Z,10.60
2023-04-28T13:56:15.796Z,10.27
2023-04-28T13:58:42.797Z,7.68
2023-04-28T14:01:09.622Z,7.50
2023-04-28T14:03:37.252Z,7.55
2023-04-28T14:06:04.605Z,6.65
2023-04-28T14:08:32.411Z,6.47
2023-04-28T14:10:59.163Z,6.07
2023-04-28T14:13:26.080Z,5.05
2023-04-28T14:15:59.179Z,7.00
2023-04-28T14:18:27.420Z,5.05
2023-04-28T14:20:54.769Z,7.95
2023-04-28T14:23:24.542Z,3.78
2023-04-28T14:25:56.187Z,3.58
2023-04-28T14:28:23.107Z,4.63
2023-04-28T14:30:50.281Z,3.50
2023-04-28T14:33:17.616Z,2.90
2023-04-28T14:35:44.811Z,4.07
2023-04-28T14:38:13.614Z,3.90
2023-04-28T14:40:42.181Z,3.33
2023-04-28T14:43:12.144Z,3.45
2023-04-28T14:45:39.211Z,3.15
2023-04-28T14:48:07.982Z,3.05
2023-04-28T14:50:37.696Z,3.00
2023-04-28T14:53:07.771Z,2.50
2023-04-28T14:55:34.888Z,3.20
2023-04-28T14:58:01.814Z,2.60
2023-04-28T15:00:29.411Z,2.45
2023-04-28T15:03:00.149Z,2.70
2023-04-28T15:05:27.267Z,3.00
2023-04-28T15:07:53.995Z,3.08
2023-04-28T15:10:21.812Z,2.65
2023-04-28T15:12:49.988Z,2.50
2023-04-28T15:15:16.771Z,2.40
2023-04-28T15:17:45.109Z,2.30
2023-04-28T15:20:12.133Z,1.92
2023-04-28T15:22:39.567Z,1.75
2023-04-28T15:25:08.708Z,1.70
2023-04-28T15:27:36.636Z,1.80
2023-04-28T15:30:03.490Z,1.80
2023-04-28T15:32:35.676Z,1.95
2023-04-28T15:35:02.986Z,1.75
2023-04-28T15:37:43.406Z,1.65
2023-04-28T15:40:12.335Z,1.70
2023-04-28T15:42:41.907Z,1.30
2023-04-28T15:45:10.584Z,1.67
2023-04-28T15:47:38.983Z,1.70
2023-04-28T15:50:07.349Z,1.40
2023-04-28T15:52:34.054Z,4.72
2023-04-28T15:55:00.815Z,3.10
2023-04-28T15:57:29.382Z,1.40
2023-04-28T15:59:56.406Z,1.50
2023-04-28T16:02:23.757Z,1.85
2023-04-28T16:04:50.911Z,3.85
2023-04-28T16:07:17.984Z,1.17
2023-04-28T16:09:44.812Z,1.45
2023-04-28T16:12:11.635Z,1.33
2023-04-28T16:14:39.081Z,1.20
2023-04-28T16:17:05.991Z,1.23
2023-04-28T16:19:32.777Z,1.00
2023-04-28T16:21:59.681Z,1.50
2023-04-28T16:24:27.054Z,1.90
2023-04-28T16:26:53.888Z,3.80
2023-04-28T16:29:20.807Z,2.00
2023-04-28T16:31:47.533Z,1.98
2023-04-28T16:34:14.536Z,3.55
2023-04-28T16:36:41.542Z,63.53
2023-04-28T16:39:09.369Z,0.43
2023-04-28T16:41:37.319Z,5.72
2023-04-28T16:44:04.377Z,0.25
2023-04-28T16:46:31.422Z,0.20
2023-04-28T16:48:58.588Z,0.35
2023-04-28T16:51:25.663Z,0.20
2023-04-28T16:53:52.426Z,0.25
2023-04-28T16:56:19.270Z,0.30
2023-04-28T16:58:46.150Z,2.38
2023-04-28T17:01:13.134Z,0.22
2023-04-28T17:03:45.646Z,0.30
2023-04-28T17:06:12.722Z,0.38
2023-04-28T17:08:40.375Z,0.40
2023-04-28T17:11:07.401Z,0.52
2023-04-28T17:13:35.791Z,0.40
2023-04-28T17:16:03.129Z,0.60
2023-04-28T17:18:30.073Z,0.40
2023-04-28T17:20:56.997Z,0.30
2023-04-28T17:23:23.828Z,0.38
2023-04-28T17:25:50.849Z,0.30
2023-04-28T17:28:17.600Z,0.20
2023-04-28T17:30:47.424Z,0.10
2023-04-28T17:33:15.135Z,0.38
2023-04-28T17:35:41.902Z,0.43
2023-04-28T17:38:08.945Z,0.17
2023-04-28T17:40:36.194Z,0.30
2023-04-28T17:43:04.065Z,0.22
2023-04-28T17:45:30.997Z,0.15
2023-04-28T17:48:00.685Z,0.10
2023-04-28T17:50:27.945Z,0.38
2023-04-28T17:52:54.987Z,0.10
2023-04-28T17:55:21.885Z,0.20
2023-04-28T17:57:48.772Z,0.20
2023-04-28T18:00:15.692Z,0.30
2023-04-28T18:02:42.506Z,0.17
2023-04-28T18:05:09.570Z,0.20
2023-04-28T18:07:36.315Z,0.10
2023-04-28T18:10:03.180Z,0.20
2023-04-28T18:12:30.313Z,0.20
2023-04-28T18:14:58.054Z,0.20
2023-04-28T18:17:26.123Z,0.20
2023-04-28T18:19:56.580Z,0.30
2023-04-28T18:22:23.629Z,0.32
2023-04-28T18:24:50.705Z,0.43
2023-04-28T18:27:17.711Z,0.40
2023-04-28T18:29:44.981Z,0.22
2023-04-28T18:32:14.473Z,0.30
2023-04-28T18:34:41.841Z,0.10
2023-04-28T18:37:09.427Z,0.30
2023-04-28T18:39:36.984Z,0.30
2023-04-28T18:42:04.414Z,0.20
2023-04-28T18:44:31.252Z,0.20
2023-04-28T18:46:58.566Z,1.02
2023-04-28T18:49:25.808Z,0.40
2023-04-28T18:51:52.535Z,0.20
2023-04-28T18:54:19.845Z,0.13
2023-04-28T18:56:48.049Z,0.40
2023-04-28T18:59:14.867Z,0.20
2023-04-28T19:01:41.955Z,0.20
2023-04-28T19:04:09.290Z,0.20
2023-04-28T19:06:36.476Z,0.30
2023-04-28T19:09:03.306Z,0.50
2023-04-28T19:11:30.561Z,0.47
2023-04-28T19:13:58.058Z,0.20
2023-04-28T19:16:24.973Z,0.20
2023-04-28T19:18:52.102Z,0.32
2023-04-28T19:21:18.817Z,0.35
2023-04-28T19:23:45.529Z,0.40
2023-04-28T19:26:13.449Z,0.20
2023-04-28T19:28:40.418Z,0.43
2023-04-28T19:31:08.990Z,0.38
2023-04-28T19:33:36.005Z,0.20
2023-04-28T19:36:03.262Z,0.47
2023-04-28T19:38:30.015Z,0.60
2023-04-28T19:41:03.298Z,0.43
2023-04-28T19:43:30.746Z,0.25
2023-04-28T19:45:58.077Z,0.30
2023-04-28T19:48:26.100Z,0.47
2023-04-28T19:50:52.822Z,0.20
2023-04-28T19:53:19.520Z,0.28
2023-04-28T19:55:46.578Z,0.60
2023-04-28T19:58:14.837Z,4.47
2023-04-28T20:00:41.705Z,0.20
2023-04-28T20:03:08.925Z,1.10
2023-04-28T20:05:38.987Z,0.30
2023-04-28T20:08:05.824Z,0.20
2023-04-28T20:10:33.006Z,0.30
2023-04-28T20:12:59.918Z,1.65
2023-04-28T20:15:26.676Z,0.20
2023-04-28T20:17:53.566Z,0.20
2023-04-28T20:20:20.528Z,0.38
2023-04-28T20:22:48.961Z,0.40
2023-04-28T20:25:16.078Z,6.93
2023-04-28T20:27:45.559Z,0.50
2023-04-28T20:30:12.632Z,0.28
2023-04-28T20:32:39.778Z,0.30
2023-04-28T20:35:07.200Z,0.50
2023-04-28T20:37:34.131Z,0.32
2023-04-28T20:40:00.926Z,0.40
2023-04-28T20:42:28.026Z,0.20
2023-04-28T20:44:54.888Z,0.38
2023-04-28T20:47:21.843Z,0.20
2023-04-28T20:49:48.712Z,0.60
2023-04-28T20:52:15.650Z,0.70
2023-04-28T20:54:43.818Z,0.50
2023-04-28T20:57:11.372Z,0.52
2023-04-28T20:59:38.092Z,0.22
2023-04-28T21:02:05.054Z,0.45
2023-04-28T21:04:31.891Z,0.25
2023-04-28T21:06:58.742Z,1.17
2023-04-28T21:09:25.655Z,0.30
2023-04-28T21:11:52.808Z,0.50
2023-04-28T21:14:20.212Z,0.57
2023-04-28T21:16:47.379Z,0.30
2023-04-28T21:19:14.173Z,0.45
2023-04-28T21:21:41.121Z,0.40
2023-04-28T21:24:09.308Z,0.88
2023-04-28T21:26:36.841Z,0.22
2023-04-28T21:29:03.596Z,0.82
2023-04-28T21:31:31.306Z,0.60
2023-04-28T21:33:58.217Z,0.45
2023-04-28T21:36:24.974Z,0.55
2023-04-28T21:38:53.059Z,0.40
2023-04-28T21:41:21.283Z,0.65
2023-04-28T21:43:48.036Z,0.45
2023-04-28T21:46:15.109Z,1.10
2023-04-28T21:48:41.875Z,0.30
2023-04-28T21:51:08.709Z,0.30
2023-04-28T21:53:36.160Z,0.50
2023-04-28T21:56:05.127Z,0.52
2023-04-28T21:58:32.087Z,0.50
2023-04-28T22:00:59.886Z,0.40
2023-04-28T22:03:27.273Z,0.30
2023-04-28T22:05:55.400Z,0.30
2023-04-28T22:08:22.243Z,0.40
2023-04-28T22:10:49.115Z,0.70
2023-04-28T22:13:16.206Z,0.40
2023-04-28T22:15:43.076Z,0.40
2023-04-28T22:18:10.184Z,0.63
2023-04-28T22:20:36.960Z,0.38
2023-04-28T22:23:03.888Z,0.40
2023-04-28T22:25:31.046Z,0.80
2023-04-28T22:27:57.880Z,0.50
2023-04-28T22:30:26.126Z,0.45
2023-04-28T22:32:53.296Z,0.30
2023-04-28T22:35:20.077Z,0.63
2023-04-28T22:37:46.929Z,0.65
2023-04-28T22:40:13.978Z,0.47
2023-04-28T22:42:41.928Z,0.47
2023-04-28T22:45:10.636Z,0.90
2023-04-28T22:47:39.392Z,0.47
2023-04-28T22:50:08.368Z,0.57
2023-04-28T22:52:35.540Z,0.60
2023-04-28T22:55:02.742Z,0.40
2023-04-28T22:57:30.188Z,0.35
2023-04-28T22:59:56.990Z,0.30
2023-04-28T23:02:23.913Z,0.30
2023-04-28T23:04:51.473Z,0.38
2023-04-28T23:07:18.449Z,0.20
2023-04-28T23:09:45.271Z,0.22
2023-04-28T23:12:12.111Z,0.20
2023-04-28T23:14:38.918Z,0.57
2023-04-28T23:17:05.879Z,0.40
2023-04-28T23:19:32.712Z,0.40
2023-04-28T23:21:59.680Z,0.40
2023-04-28T23:24:27.261Z,0.30
2023-04-28T23:26:54.165Z,0.38
2023-04-28T23:29:21.182Z,0.40
2023-04-28T23:31:52.379Z,0.25
2023-04-28T23:34:19.496Z,0.50
2023-04-28T23:36:46.333Z,0.30
2023-04-28T23:39:13.681Z,0.43
2023-04-28T23:41:41.085Z,0.55
2023-04-28T23:44:08.357Z,0.50
2023-04-28T23:46:35.271Z,0.50
2023-04-28T23:49:02.228Z,0.70
2023-04-28T23:51:29.257Z,0.30
2023-04-28T23:53:56.177Z,0.32
2023-04-28T23:56:22.937Z,0.40
2023-04-28T23:58:49.891Z,0.38
